createdAt,value
2016-05-18T00:00:08.291Z,0
2016-05-18T00:01:08.121Z,0
2016-05-18T00:02:08.297Z,0
2016-05-18T00:03:08.299Z,0
2016-05-18T00:04:08.130Z,0
2016-05-18T00:05:08.133Z,0
2016-05-18T00:06:08.291Z,0
2016-05-18T00:07:08.138Z,0
2016-05-18T00:08:08.312Z,0
2016-05-18T00:09:08.283Z,0
2016-05-18T00:10:08.286Z,0
2016-05-18T00:11:08.164Z,0
2016-05-18T00:12:08.120Z,0
2016-05-18T00:13:07.826Z,0
2016-05-18T00:14:08.126Z,0
2016-05-18T00:15:08.284Z,0
2016-05-18T00:16:08.131Z,0
2016-05-18T00:17:08.274Z,0
2016-05-18T00:18:08.121Z,0
2016-05-18T00:19:08.310Z,0
2016-05-18T00:20:08.938Z,0
2016-05-18T00:21:08.112Z,0
2016-05-18T00:22:08.272Z,0
2016-05-18T00:23:08.290Z,0
2016-05-18T00:24:08.261Z,0
2016-05-18T00:25:08.296Z,0
2016-05-18T00:26:08.126Z,0
2016-05-18T00:27:08.128Z,0
2016-05-18T00:28:08.288Z,0
2016-05-18T00:29:08.119Z,0
2016-05-18T00:30:08.278Z,0
2016-05-18T00:31:08.264Z,0
2016-05-18T00:32:08.143Z,0
2016-05-18T00:33:08.114Z,0
2016-05-18T00:34:08.272Z,0
2016-05-18T00:35:08.260Z,0
2016-05-18T00:36:08.263Z,0
2016-05-18T00:37:08.280Z,0
2016-05-18T00:38:08.316Z,0
2016-05-18T00:39:07.958Z,0
2016-05-18T00:40:08.273Z,0
2016-05-18T00:41:08.105Z,0
2016-05-18T00:42:08.263Z,0
2016-05-18T00:43:08.109Z,0
2016-05-18T00:44:08.285Z,0
2016-05-18T00:45:08.271Z,0
2016-05-18T00:46:07.962Z,0
2016-05-18T00:47:08.292Z,0
2016-05-18T00:48:07.951Z,0
2016-05-18T00:49:08.109Z,0
2016-05-18T00:50:08.269Z,0
2016-05-18T00:51:07.959Z,0
2016-05-18T00:52:08.259Z,0
2016-05-18T00:53:08.246Z,0
2016-05-18T00:54:08.092Z,0
2016-05-18T00:55:08.267Z,0
2016-05-18T00:56:08.113Z,0
2016-05-18T00:57:08.256Z,0
2016-05-18T00:58:08.103Z,0
2016-05-18T00:59:08.137Z,0
2016-05-18T01:00:08.249Z,0
2016-05-18T01:01:08.111Z,0
2016-05-18T01:02:08.255Z,0
2016-05-18T01:03:08.257Z,0
2016-05-18T01:04:08.260Z,0
2016-05-18T01:05:08.106Z,0
2016-05-18T01:06:08.266Z,0
2016-05-18T01:07:08.268Z,0
2016-05-18T01:08:08.755Z,0
2016-05-18T01:09:08.102Z,0
2016-05-18T01:10:08.260Z,0
2016-05-18T01:11:08.247Z,0
2016-05-18T01:12:08.265Z,0
2016-05-18T01:13:07.941Z,0
2016-05-18T01:14:08.240Z,0
2016-05-18T01:15:08.101Z,0
2016-05-18T01:16:08.088Z,0
2016-05-18T01:17:08.091Z,0
2016-05-18T01:18:07.938Z,0
2016-05-18T01:19:08.253Z,0
2016-05-18T01:20:08.100Z,0
2016-05-18T01:21:07.790Z,0
2016-05-18T01:22:08.246Z,0
2016-05-18T01:23:08.107Z,0
2016-05-18T01:24:08.250Z,0
2016-05-18T01:25:08.098Z,0
2016-05-18T01:26:08.240Z,0
2016-05-18T01:27:08.243Z,0
2016-05-18T01:28:08.090Z,0
2016-05-18T01:29:08.077Z,0
2016-05-18T01:30:08.236Z,0
2016-05-18T01:31:08.253Z,0
2016-05-18T01:32:08.086Z,0
2016-05-18T01:33:08.088Z,0
2016-05-18T01:34:08.247Z,0
2016-05-18T01:35:07.921Z,0
2016-05-18T01:36:08.236Z,0
2016-05-18T01:37:08.270Z,0
2016-05-18T01:38:08.351Z,0
2016-05-18T01:39:08.072Z,0
2016-05-18T01:40:08.247Z,0
2016-05-18T01:41:08.235Z,0
2016-05-18T01:42:08.080Z,0
2016-05-18T01:43:08.255Z,0
2016-05-18T01:44:08.071Z,0
2016-05-18T01:45:08.088Z,0
2016-05-18T01:46:08.076Z,0
2016-05-18T01:47:08.079Z,0
2016-05-18T01:48:08.238Z,0
2016-05-18T01:49:08.084Z,0
2016-05-18T01:50:08.243Z,0
2016-05-18T01:51:08.229Z,0
2016-05-18T01:52:08.232Z,0
2016-05-18T01:53:08.079Z,0
2016-05-18T01:54:08.081Z,0
2016-05-18T01:55:08.084Z,0
2016-05-18T01:56:08.228Z,0
2016-05-18T01:57:08.215Z,0
2016-05-18T01:58:08.248Z,0
2016-05-18T01:59:08.079Z,0
2016-05-18T02:00:08.223Z,0
2016-05-18T02:01:08.100Z,0
2016-05-18T02:02:08.057Z,0
2016-05-18T02:03:07.903Z,0
2016-05-18T02:04:08.233Z,0
2016-05-18T02:05:08.220Z,0
2016-05-18T02:06:08.223Z,0
2016-05-18T02:07:08.210Z,0
2016-05-18T02:08:08.603Z,0
2016-05-18T02:09:08.231Z,0
2016-05-18T02:10:08.218Z,0
2016-05-18T02:11:08.222Z,0
2016-05-18T02:12:08.068Z,0
2016-05-18T02:13:08.210Z,0
2016-05-18T02:14:08.214Z,0
2016-05-18T02:15:08.060Z,0
2016-05-18T02:16:08.219Z,0
2016-05-18T02:17:07.909Z,0
2016-05-18T02:18:08.209Z,0
2016-05-18T02:19:08.071Z,0
2016-05-18T02:20:08.214Z,0
2016-05-18T02:21:08.232Z,0
2016-05-18T02:22:08.063Z,0
2016-05-18T02:23:08.223Z,0
2016-05-18T02:24:08.209Z,0
2016-05-18T02:25:08.056Z,0
2016-05-18T02:26:08.215Z,0
2016-05-18T02:27:08.045Z,0
2016-05-18T02:28:08.236Z,0
2016-05-18T02:29:08.050Z,0
2016-05-18T02:30:08.195Z,0
2016-05-18T02:31:08.197Z,0
2016-05-18T02:32:08.215Z,0
2016-05-18T02:33:08.202Z,0
2016-05-18T02:34:08.205Z,0
2016-05-18T02:35:07.895Z,0
2016-05-18T02:36:08.039Z,0
2016-05-18T02:37:08.197Z,0
2016-05-18T02:38:08.403Z,0
2016-05-18T02:39:08.203Z,0
2016-05-18T02:40:08.221Z,0
2016-05-18T02:41:08.208Z,0
2016-05-18T02:42:08.180Z,0
2016-05-18T02:43:08.041Z,0
2016-05-18T02:44:08.044Z,0
2016-05-18T02:45:08.046Z,0
2016-05-18T02:46:08.191Z,0
2016-05-18T02:47:08.224Z,0
2016-05-18T02:48:08.180Z,0
2016-05-18T02:49:08.198Z,0
2016-05-18T02:50:08.046Z,0
2016-05-18T02:51:08.188Z,0
2016-05-18T02:52:08.018Z,0
2016-05-18T02:53:08.257Z,0
2016-05-18T02:54:08.181Z,0
2016-05-18T02:55:08.183Z,0
2016-05-18T02:56:08.029Z,0
2016-05-18T02:57:08.173Z,0
2016-05-18T02:58:08.020Z,0
2016-05-18T02:59:08.053Z,0
2016-05-18T03:00:08.025Z,0
2016-05-18T03:01:08.028Z,0
2016-05-18T03:02:08.186Z,0
2016-05-18T03:03:08.017Z,0
2016-05-18T03:04:08.176Z,0
2016-05-18T03:05:08.179Z,0
2016-05-18T03:06:08.181Z,0
2016-05-18T03:07:07.856Z,0
2016-05-18T03:08:08.514Z,0
2016-05-18T03:09:08.033Z,0
2016-05-18T03:10:08.020Z,0
2016-05-18T03:11:08.022Z,0
2016-05-18T03:12:08.167Z,0
2016-05-18T03:13:08.185Z,0
2016-05-18T03:14:07.999Z,0
2016-05-18T03:15:08.002Z,0
2016-05-18T03:16:08.161Z,0
2016-05-18T03:17:08.180Z,0
2016-05-18T03:18:07.995Z,0
2016-05-18T03:19:08.170Z,0
2016-05-18T03:20:08.016Z,0
2016-05-18T03:21:08.159Z,0
2016-05-18T03:22:08.193Z,0
2016-05-18T03:23:08.398Z,0
2016-05-18T03:24:08.183Z,0
2016-05-18T03:25:08.170Z,0
2016-05-18T03:26:07.704Z,0
2016-05-18T03:27:08.160Z,0
2016-05-18T03:28:07.990Z,0
2016-05-18T03:29:08.150Z,0
2016-05-18T03:30:08.012Z,0
2016-05-18T03:31:08.156Z,0
2016-05-18T03:32:08.158Z,0
2016-05-18T03:33:08.161Z,0
2016-05-18T03:34:08.147Z,0
2016-05-18T03:35:08.166Z,0
2016-05-18T03:36:07.997Z,0
2016-05-18T03:37:07.981Z,0
2016-05-18T03:38:08.096Z,0
2016-05-18T03:39:07.987Z,0
2016-05-18T03:40:07.847Z,0
2016-05-18T03:41:07.991Z,0
2016-05-18T03:42:08.153Z,0
2016-05-18T03:43:08.156Z,5
2016-05-18T03:44:08.141Z,5
2016-05-18T03:45:08.144Z,5
2016-05-18T03:46:07.989Z,5
2016-05-18T03:47:08.117Z,5
2016-05-18T03:48:07.995Z,5
2016-05-18T03:49:07.997Z,5
2016-05-18T03:50:08.125Z,5
2016-05-18T03:51:07.988Z,10
2016-05-18T03:52:07.990Z,10
2016-05-18T03:53:08.352Z,10
2016-05-18T03:54:08.135Z,10
2016-05-18T03:55:07.999Z,10
2016-05-18T03:56:08.126Z,10
2016-05-18T03:57:08.129Z,10
2016-05-18T03:58:08.132Z,15
2016-05-18T03:59:08.118Z,15
2016-05-18T04:00:07.981Z,15
2016-05-18T04:01:08.123Z,15
2016-05-18T04:02:08.126Z,15
2016-05-18T04:03:08.145Z,20
2016-05-18T04:04:07.804Z,20
2016-05-18T04:05:08.134Z,20
2016-05-18T04:06:08.137Z,20
2016-05-18T04:07:08.109Z,20
2016-05-18T04:08:08.189Z,20
2016-05-18T04:09:08.145Z,25
2016-05-18T04:10:08.117Z,25
2016-05-18T04:11:08.103Z,25
2016-05-18T04:12:08.122Z,25
2016-05-18T04:13:08.125Z,25
2016-05-18T04:14:08.112Z,30
2016-05-18T04:15:08.114Z,30
2016-05-18T04:16:08.133Z,30
2016-05-18T04:17:08.104Z,30
2016-05-18T04:18:08.107Z,30
2016-05-18T04:19:08.110Z,35
2016-05-18T04:20:07.971Z,35
2016-05-18T04:21:08.100Z,35
2016-05-18T04:22:08.102Z,35
2016-05-18T04:23:07.964Z,40
2016-05-18T04:24:08.107Z,40
2016-05-18T04:25:08.110Z,40
2016-05-18T04:26:08.113Z,45
2016-05-18T04:27:08.115Z,45
2016-05-18T04:28:08.103Z,45
2016-05-18T04:29:08.105Z,45
2016-05-18T04:30:07.982Z,50
2016-05-18T04:31:08.142Z,50
2016-05-18T04:32:08.112Z,55
2016-05-18T04:33:08.100Z,55
2016-05-18T04:34:08.103Z,60
2016-05-18T04:35:08.106Z,65
2016-05-18T04:36:07.953Z,105
2016-05-18T04:37:08.112Z,80
2016-05-18T04:38:07.817Z,90
2016-05-18T04:39:07.945Z,80
2016-05-18T04:40:08.104Z,110
2016-05-18T04:41:08.091Z,175
2016-05-18T04:42:07.953Z,195
2016-05-18T04:43:08.111Z,200
2016-05-18T04:44:07.942Z,205
2016-05-18T04:45:07.789Z,215
2016-05-18T04:46:08.105Z,220
2016-05-18T04:47:07.935Z,215
2016-05-18T04:48:08.094Z,220
2016-05-18T04:49:07.940Z,220
2016-05-18T04:50:07.943Z,230
2016-05-18T04:51:07.946Z,235
2016-05-18T04:52:07.933Z,240
2016-05-18T04:53:08.545Z,250
2016-05-18T04:54:08.110Z,265
2016-05-18T04:55:08.113Z,270
2016-05-18T04:56:07.927Z,275
2016-05-18T04:57:07.946Z,275
2016-05-18T04:58:08.089Z,290
2016-05-18T04:59:07.936Z,295
2016-05-18T05:00:08.095Z,295
2016-05-18T05:01:08.098Z,300
2016-05-18T05:02:08.101Z,310
2016-05-18T05:03:08.103Z,315
2016-05-18T05:04:08.106Z,315
2016-05-18T05:05:08.108Z,310
2016-05-18T05:06:07.954Z,320
2016-05-18T05:07:08.114Z,330
2016-05-18T05:08:08.397Z,325
2016-05-18T05:09:07.791Z,335
2016-05-18T05:10:08.107Z,340
2016-05-18T05:11:07.952Z,345
2016-05-18T05:12:07.799Z,360
2016-05-18T05:13:08.114Z,370
2016-05-18T05:14:07.976Z,380
2016-05-18T05:15:08.103Z,370
2016-05-18T05:16:08.138Z,370
2016-05-18T05:17:08.109Z,370
2016-05-18T05:18:08.112Z,380
2016-05-18T05:19:08.147Z,390
2016-05-18T05:20:07.821Z,390
2016-05-18T05:21:08.135Z,410
2016-05-18T05:22:07.966Z,405
2016-05-18T05:23:08.141Z,420
2016-05-18T05:24:07.988Z,415
2016-05-18T05:25:08.131Z,420
2016-05-18T05:26:08.133Z,440
2016-05-18T05:27:08.152Z,440
2016-05-18T05:28:07.998Z,445
2016-05-18T05:29:08.158Z,460
2016-05-18T05:30:08.144Z,460
2016-05-18T05:31:08.162Z,460
2016-05-18T05:32:08.009Z,465
2016-05-18T05:33:08.231Z,480
2016-05-18T05:34:08.171Z,475
2016-05-18T05:35:08.157Z,490
2016-05-18T05:36:08.176Z,510
2016-05-18T05:37:08.037Z,540
2016-05-18T05:38:08.870Z,525
2016-05-18T05:39:07.887Z,505
2016-05-18T05:40:08.203Z,505
2016-05-18T05:41:08.034Z,530
2016-05-18T05:42:07.895Z,545
2016-05-18T05:43:08.054Z,535
2016-05-18T05:44:08.197Z,545
2016-05-18T05:45:08.216Z,545
2016-05-18T05:46:08.062Z,545
2016-05-18T05:47:08.080Z,555
2016-05-18T05:48:08.255Z,570
2016-05-18T05:49:08.227Z,575
2016-05-18T05:50:08.244Z,570
2016-05-18T05:51:08.247Z,585
2016-05-18T05:52:08.250Z,610
2016-05-18T05:53:09.096Z,590
2016-05-18T05:54:08.255Z,575
2016-05-18T05:55:08.258Z,575
2016-05-18T05:56:08.121Z,615
2016-05-18T05:57:08.280Z,625
2016-05-18T05:58:08.127Z,590
2016-05-18T05:59:08.129Z,600
2016-05-18T06:00:08.131Z,625
2016-05-18T06:01:08.149Z,620
2016-05-18T06:02:08.293Z,610
2016-05-18T06:03:08.296Z,605
2016-05-18T06:04:08.314Z,625
2016-05-18T06:05:08.176Z,650
2016-05-18T06:06:08.320Z,650
2016-05-18T06:07:08.322Z,655
2016-05-18T06:08:08.293Z,650
2016-05-18T06:09:07.890Z,665
2016-05-18T06:10:08.361Z,665
2016-05-18T06:11:08.348Z,685
2016-05-18T06:12:08.211Z,695
2016-05-18T06:13:08.228Z,705
2016-05-18T06:14:08.216Z,700
2016-05-18T06:15:08.374Z,665
2016-05-18T06:16:08.377Z,675
2016-05-18T06:17:08.381Z,725
2016-05-18T06:18:08.398Z,740
2016-05-18T06:19:08.275Z,730
2016-05-18T06:20:08.263Z,750
2016-05-18T06:21:08.469Z,735
2016-05-18T06:22:08.441Z,750
2016-05-18T06:23:08.396Z,735
2016-05-18T06:24:08.461Z,725
2016-05-18T06:25:08.480Z,745
2016-05-18T06:26:08.310Z,750
2016-05-18T06:27:08.313Z,755
2016-05-18T06:28:08.488Z,740
2016-05-18T06:29:08.490Z,780
2016-05-18T06:30:08.165Z,790
2016-05-18T06:31:08.496Z,800
2016-05-18T06:32:08.498Z,790
2016-05-18T06:33:08.517Z,790
2016-05-18T06:34:08.363Z,825
2016-05-18T06:35:08.366Z,825
2016-05-18T06:36:08.541Z,805
2016-05-18T06:37:08.543Z,840
2016-05-18T06:38:08.624Z,875
2016-05-18T06:39:08.564Z,840
2016-05-18T06:40:08.567Z,845
2016-05-18T06:41:08.585Z,865
2016-05-18T06:42:08.432Z,880
2016-05-18T06:43:08.278Z,885
2016-05-18T06:44:08.592Z,890
2016-05-18T06:45:08.455Z,870
2016-05-18T06:46:08.630Z,855
2016-05-18T06:47:08.461Z,850
2016-05-18T06:48:08.619Z,875
2016-05-18T06:49:08.654Z,885
2016-05-18T06:50:08.656Z,900
2016-05-18T06:51:08.644Z,870
2016-05-18T06:52:08.506Z,930
2016-05-18T06:53:08.696Z,925
2016-05-18T06:54:08.683Z,925
2016-05-18T06:55:08.545Z,935
2016-05-18T06:56:08.704Z,925
2016-05-18T06:57:08.722Z,935
2016-05-18T06:58:08.741Z,945
2016-05-18T06:59:08.743Z,1015
2016-05-18T07:00:08.730Z,990
2016-05-18T07:01:08.749Z,910
2016-05-18T07:02:08.751Z,955
2016-05-18T07:03:08.598Z,980
2016-05-18T07:04:08.788Z,1005
2016-05-18T07:05:08.790Z,1005
2016-05-18T07:06:08.652Z,995
2016-05-18T07:07:08.484Z,980
2016-05-18T07:08:09.142Z,965
2016-05-18T07:09:08.660Z,975
2016-05-18T07:10:08.820Z,1090
2016-05-18T07:11:08.838Z,1205
2016-05-18T07:12:08.856Z,1175
2016-05-18T07:13:08.703Z,1160
2016-05-18T07:14:08.861Z,1160
2016-05-18T07:15:08.881Z,1145
2016-05-18T07:16:08.883Z,1115
2016-05-18T07:17:08.745Z,1125
2016-05-18T07:18:08.919Z,1035
2016-05-18T07:19:08.922Z,1090
2016-05-18T07:20:08.925Z,1140
2016-05-18T07:21:08.771Z,1085
2016-05-18T07:22:08.961Z,1090
2016-05-18T07:23:09.011Z,1115
2016-05-18T07:24:08.810Z,1165
2016-05-18T07:25:08.969Z,1175
2016-05-18T07:26:08.831Z,1130
2016-05-18T07:27:08.834Z,1140
2016-05-18T07:28:08.696Z,1145
2016-05-18T07:29:09.011Z,1145
2016-05-18T07:30:08.874Z,1150
2016-05-18T07:31:09.033Z,1135
2016-05-18T07:32:09.036Z,1115
2016-05-18T07:33:08.913Z,1115
2016-05-18T07:34:08.759Z,1145
2016-05-18T07:35:08.777Z,1125
2016-05-18T07:36:09.093Z,1125
2016-05-18T07:37:08.799Z,1170
2016-05-18T07:38:09.285Z,1185
2016-05-18T07:39:09.132Z,1190
2016-05-18T07:40:09.150Z,1110
2016-05-18T07:41:09.138Z,1075
2016-05-18T07:42:08.999Z,1135
2016-05-18T07:43:09.002Z,1220
2016-05-18T07:44:09.176Z,1245
2016-05-18T07:45:08.867Z,1200
2016-05-18T07:46:09.229Z,1230
2016-05-18T07:47:09.201Z,1230
2016-05-18T07:48:09.219Z,1295
2016-05-18T07:49:09.222Z,1420
2016-05-18T07:50:09.239Z,1350
2016-05-18T07:51:09.242Z,1370
2016-05-18T07:52:09.261Z,1380
2016-05-18T07:53:10.044Z,1170
2016-05-18T07:54:09.297Z,1040
2016-05-18T07:55:09.300Z,1090
2016-05-18T07:56:09.287Z,1125
2016-05-18T07:57:08.993Z,1065
2016-05-18T07:58:09.308Z,930
2016-05-18T07:59:09.326Z,855
2016-05-18T08:00:09.345Z,870
2016-05-18T08:01:09.348Z,1140
2016-05-18T08:02:09.366Z,1325
2016-05-18T08:03:09.369Z,1175
2016-05-18T08:04:09.387Z,860
2016-05-18T08:05:09.233Z,665
2016-05-18T08:06:09.408Z,630
2016-05-18T08:07:09.441Z,665
2016-05-18T08:08:10.163Z,700
2016-05-18T08:09:09.432Z,730
2016-05-18T08:10:09.450Z,755
2016-05-18T08:11:09.140Z,760
2016-05-18T08:12:09.002Z,740
2016-05-18T08:13:09.161Z,800
2016-05-18T08:14:09.476Z,800
2016-05-18T08:15:09.338Z,800
2016-05-18T08:16:09.340Z,825
2016-05-18T08:17:09.531Z,930
2016-05-18T08:18:09.408Z,1010
2016-05-18T08:19:09.536Z,1005
2016-05-18T08:20:09.555Z,955
2016-05-18T08:21:09.401Z,1045
2016-05-18T08:22:09.576Z,1050
2016-05-18T08:23:10.673Z,1005
2016-05-18T08:24:09.487Z,1040
2016-05-18T08:25:09.444Z,1060
2016-05-18T08:26:09.462Z,1050
2016-05-18T08:27:09.636Z,1030
2016-05-18T08:28:09.493Z,1040
2016-05-18T08:29:09.539Z,1080
2016-05-18T08:30:09.770Z,985
2016-05-18T08:31:09.800Z,1035
2016-05-18T08:32:09.845Z,980
2016-05-18T08:33:09.898Z,1005
2016-05-18T08:34:09.776Z,1020
2016-05-18T08:35:09.935Z,1000
2016-05-18T08:36:09.812Z,1010
2016-05-18T08:37:09.846Z,1025
2016-05-18T08:38:10.033Z,1035
2016-05-18T08:39:10.057Z,1010
2016-05-18T08:40:09.909Z,1030
2016-05-18T08:41:09.917Z,995
2016-05-18T08:42:09.956Z,965
2016-05-18T08:43:10.104Z,975
2016-05-18T08:44:10.109Z,1030
2016-05-18T08:45:09.958Z,1025
2016-05-18T08:46:10.135Z,1010
2016-05-18T08:47:10.156Z,1045
2016-05-18T08:48:10.175Z,995
2016-05-18T08:49:10.039Z,960
2016-05-18T08:50:10.198Z,985
2016-05-18T08:51:10.201Z,980
2016-05-18T08:52:10.189Z,1005
2016-05-18T08:53:10.083Z,875
2016-05-18T08:54:10.227Z,835
2016-05-18T08:55:10.089Z,875
2016-05-18T08:56:09.920Z,800
2016-05-18T08:57:10.125Z,855
2016-05-18T08:58:10.253Z,885
2016-05-18T08:59:09.943Z,615
2016-05-18T09:00:10.118Z,275
2016-05-18T09:01:10.121Z,215
2016-05-18T09:02:10.138Z,205
2016-05-18T09:03:10.282Z,205
2016-05-18T09:04:10.316Z,200
2016-05-18T09:05:10.319Z,195
2016-05-18T09:06:10.180Z,190
2016-05-18T09:07:10.387Z,180
2016-05-18T09:08:10.357Z,175
2016-05-18T09:09:10.204Z,170
2016-05-18T09:10:10.348Z,170
2016-05-18T09:11:10.366Z,170
2016-05-18T09:12:10.384Z,170
2016-05-18T09:13:10.387Z,170
2016-05-18T09:14:10.390Z,165
2016-05-18T09:15:10.439Z,165
2016-05-18T09:16:10.411Z,165
2016-05-18T09:17:10.414Z,165
2016-05-18T09:18:10.417Z,160
2016-05-18T09:19:10.434Z,160
2016-05-18T09:20:10.437Z,160
2016-05-18T09:21:10.455Z,160
2016-05-18T09:22:10.442Z,160
2016-05-18T09:23:11.211Z,160
2016-05-18T09:24:10.464Z,160
2016-05-18T09:25:10.310Z,155
2016-05-18T09:26:10.469Z,155
2016-05-18T09:27:10.487Z,155
2016-05-18T09:28:10.489Z,155
2016-05-18T09:29:10.492Z,155
2016-05-18T09:30:10.510Z,155
2016-05-18T09:31:10.513Z,150
2016-05-18T09:32:10.516Z,150
2016-05-18T09:33:10.519Z,150
2016-05-18T09:34:10.521Z,150
2016-05-18T09:35:10.540Z,145
2016-05-18T09:36:10.558Z,140
2016-05-18T09:37:10.545Z,145
2016-05-18T09:38:11.220Z,145
2016-05-18T09:39:10.582Z,145
2016-05-18T09:40:10.569Z,140
2016-05-18T09:41:10.415Z,140
2016-05-18T09:42:10.590Z,140
2016-05-18T09:43:10.592Z,140
2016-05-18T09:44:10.595Z,140
2016-05-18T09:45:10.598Z,140
2016-05-18T09:46:10.304Z,140
2016-05-18T09:47:10.603Z,140
2016-05-18T09:48:10.325Z,145
2016-05-18T09:49:10.312Z,145
2016-05-18T09:50:10.470Z,140
2016-05-18T09:51:10.630Z,140
2016-05-18T09:52:10.648Z,135
2016-05-18T09:53:10.636Z,135
2016-05-18T09:54:10.653Z,135
2016-05-18T09:55:10.687Z,135
2016-05-18T09:56:10.503Z,135
2016-05-18T09:57:10.678Z,135
2016-05-18T09:58:10.680Z,140
2016-05-18T09:59:10.370Z,140
2016-05-18T10:00:10.372Z,140
2016-05-18T10:01:10.688Z,140
2016-05-18T10:02:10.394Z,140
2016-05-18T10:03:10.553Z,140
2016-05-18T10:04:10.555Z,140
2016-05-18T10:05:10.730Z,140
2016-05-18T10:06:10.733Z,140
2016-05-18T10:07:10.719Z,140
2016-05-18T10:08:11.004Z,140
2016-05-18T10:09:10.757Z,140
2016-05-18T10:10:10.571Z,140
2016-05-18T10:11:10.590Z,135
2016-05-18T10:12:10.593Z,135
2016-05-18T10:13:10.579Z,135
2016-05-18T10:14:10.613Z,135
2016-05-18T10:15:10.773Z,140
2016-05-18T10:16:10.775Z,140
2016-05-18T10:17:10.793Z,140
2016-05-18T10:18:10.624Z,145
2016-05-18T10:19:10.799Z,150
2016-05-18T10:20:10.786Z,155
2016-05-18T10:21:10.789Z,155
2016-05-18T10:22:10.807Z,160
2016-05-18T10:23:10.903Z,160
2016-05-18T10:24:10.859Z,160
2016-05-18T10:25:10.503Z,160
2016-05-18T10:26:10.677Z,155
2016-05-18T10:27:10.820Z,155
2016-05-18T10:28:10.823Z,150
2016-05-18T10:29:10.669Z,150
2016-05-18T10:30:10.828Z,145
2016-05-18T10:31:10.863Z,140
2016-05-18T10:32:10.866Z,140
2016-05-18T10:33:10.696Z,135
2016-05-18T10:34:10.839Z,135
2016-05-18T10:35:10.858Z,135
2016-05-18T10:36:10.861Z,140
2016-05-18T10:37:10.863Z,140
2016-05-18T10:38:11.365Z,140
2016-05-18T10:39:10.712Z,140
2016-05-18T10:40:10.965Z,140
2016-05-18T10:41:10.905Z,140
2016-05-18T10:42:10.893Z,140
2016-05-18T10:43:10.723Z,140
2016-05-18T10:44:10.898Z,140
2016-05-18T10:45:10.901Z,145
2016-05-18T10:46:10.903Z,145
2016-05-18T10:47:10.609Z,140
2016-05-18T10:48:10.768Z,140
2016-05-18T10:49:10.943Z,140
2016-05-18T10:50:10.617Z,140
2016-05-18T10:51:10.931Z,140
2016-05-18T10:52:10.935Z,140
2016-05-18T10:53:10.906Z,140
2016-05-18T10:54:11.253Z,140
2016-05-18T10:55:10.943Z,140
2016-05-18T10:56:10.961Z,135
2016-05-18T10:57:10.964Z,135
2016-05-18T10:58:10.811Z,135
2016-05-18T10:59:10.813Z,130
2016-05-18T11:00:10.831Z,130
2016-05-18T11:01:10.819Z,130
2016-05-18T11:02:10.978Z,130
2016-05-18T11:03:10.995Z,130
2016-05-18T11:04:10.686Z,130
2016-05-18T11:05:11.000Z,130
2016-05-18T11:06:10.847Z,130
2016-05-18T11:07:10.835Z,125
2016-05-18T11:08:12.306Z,125
2016-05-18T11:09:11.011Z,125
2016-05-18T11:10:10.998Z,125
2016-05-18T11:11:10.877Z,120
2016-05-18T11:12:11.035Z,120
2016-05-18T11:13:10.882Z,125
2016-05-18T11:14:11.025Z,125
2016-05-18T11:15:10.871Z,125
2016-05-18T11:16:11.076Z,120
2016-05-18T11:17:11.049Z,125
2016-05-18T11:18:10.739Z,125
2016-05-18T11:19:11.070Z,130
2016-05-18T11:20:10.915Z,130
2016-05-18T11:21:11.059Z,130
2016-05-18T11:22:11.062Z,125
2016-05-18T11:23:11.128Z,125
2016-05-18T11:24:10.801Z,125
2016-05-18T11:25:10.945Z,130
2016-05-18T11:26:11.120Z,135
2016-05-18T11:27:10.950Z,135
2016-05-18T11:28:10.938Z,145
2016-05-18T11:29:10.784Z,150
2016-05-18T11:30:10.942Z,150
2016-05-18T11:31:11.086Z,150
2016-05-18T11:32:11.105Z,150
2016-05-18T11:33:10.966Z,150
2016-05-18T11:34:10.953Z,150
2016-05-18T11:35:10.816Z,145
2016-05-18T11:36:10.975Z,145
2016-05-18T11:37:11.118Z,145
2016-05-18T11:38:10.699Z,145
2016-05-18T11:39:11.139Z,145
2016-05-18T11:40:11.126Z,145
2016-05-18T11:41:11.144Z,155
2016-05-18T11:42:10.991Z,170
2016-05-18T11:43:11.150Z,175
2016-05-18T11:44:10.840Z,180
2016-05-18T11:45:11.155Z,180
2016-05-18T11:46:11.001Z,180
2016-05-18T11:47:11.176Z,175
2016-05-18T11:48:11.163Z,175
2016-05-18T11:49:11.181Z,170
2016-05-18T11:50:10.872Z,165
2016-05-18T11:51:10.874Z,165
2016-05-18T11:52:11.189Z,170
2016-05-18T11:53:11.693Z,160
2016-05-18T11:54:11.195Z,155
2016-05-18T11:55:11.182Z,155
2016-05-18T11:56:11.059Z,160
2016-05-18T11:57:11.219Z,160
2016-05-18T11:58:10.940Z,150
2016-05-18T11:59:11.083Z,150
2016-05-18T12:00:11.227Z,155
2016-05-18T12:01:11.214Z,160
2016-05-18T12:02:11.232Z,165
2016-05-18T12:03:11.078Z,165
2016-05-18T12:04:11.269Z,165
2016-05-18T12:05:11.084Z,160
2016-05-18T12:06:11.102Z,155
2016-05-18T12:07:11.261Z,150
2016-05-18T12:08:11.577Z,150
2016-05-18T12:09:11.110Z,145
2016-05-18T12:10:11.113Z,140
2016-05-18T12:11:10.960Z,145
2016-05-18T12:12:11.291Z,150
2016-05-18T12:13:11.293Z,155
2016-05-18T12:14:11.280Z,160
2016-05-18T12:15:11.282Z,170
2016-05-18T12:16:11.129Z,175
2016-05-18T12:17:11.148Z,175
2016-05-18T12:18:11.150Z,175
2016-05-18T12:19:11.154Z,175
2016-05-18T12:20:11.562Z,180
2016-05-18T12:21:11.314Z,185
2016-05-18T12:22:11.349Z,185
2016-05-18T12:23:11.898Z,175
2016-05-18T12:24:11.791Z,170
2016-05-18T12:25:14.795Z,165
2016-05-18T12:26:11.343Z,165
2016-05-18T12:27:11.315Z,160
2016-05-18T12:28:11.177Z,160
2016-05-18T12:29:11.351Z,160
2016-05-18T12:30:16.776Z,165
2016-05-18T12:31:11.231Z,165
2016-05-18T12:32:11.188Z,170
2016-05-18T12:33:11.378Z,175
2016-05-18T12:34:11.364Z,175
2016-05-18T12:35:11.368Z,180
2016-05-18T12:36:11.370Z,190
2016-05-18T12:37:11.357Z,195
2016-05-18T12:38:11.642Z,200
2016-05-18T12:39:11.238Z,200
2016-05-18T12:40:12.177Z,205
2016-05-18T12:41:11.383Z,210
2016-05-18T12:42:11.402Z,205
2016-05-18T12:43:11.249Z,200
2016-05-18T12:44:11.407Z,200
2016-05-18T12:45:11.629Z,195
2016-05-18T12:46:11.413Z,195
2016-05-18T12:47:11.182Z,195
2016-05-18T12:48:11.106Z,190
2016-05-18T12:49:11.420Z,190
2016-05-18T12:50:13.783Z,190
2016-05-18T12:51:11.270Z,190
2016-05-18T12:52:11.273Z,190
2016-05-18T12:53:12.260Z,195
2016-05-18T12:54:11.450Z,195
2016-05-18T12:55:11.750Z,200
2016-05-18T12:56:11.456Z,195
2016-05-18T12:57:11.459Z,190
2016-05-18T12:58:11.148Z,185
2016-05-18T12:59:11.448Z,185
2016-05-18T13:00:16.481Z,185
2016-05-18T13:01:11.469Z,180
2016-05-18T13:02:11.472Z,180
2016-05-18T13:03:11.475Z,175
2016-05-18T13:04:11.180Z,180
2016-05-18T13:05:16.042Z,180
2016-05-18T13:06:11.186Z,185
2016-05-18T13:07:11.517Z,190
2016-05-18T13:08:11.660Z,195
2016-05-18T13:09:11.506Z,195
2016-05-18T13:10:15.947Z,200
2016-05-18T13:11:11.214Z,200
2016-05-18T13:12:11.514Z,200
2016-05-18T13:13:11.516Z,200
2016-05-18T13:14:11.207Z,200
2016-05-18T13:15:11.522Z,200
2016-05-18T13:16:11.385Z,195
2016-05-18T13:17:10.934Z,195
2016-05-18T13:18:11.546Z,195
2016-05-18T13:19:11.236Z,190
2016-05-18T13:20:14.879Z,195
2016-05-18T13:21:11.554Z,190
2016-05-18T13:22:11.557Z,190
2016-05-18T13:23:13.137Z,190
2016-05-18T13:24:11.812Z,190
2016-05-18T13:25:17.173Z,190
2016-05-18T13:26:11.254Z,190
2016-05-18T13:27:11.586Z,190
2016-05-18T13:28:11.589Z,185
2016-05-18T13:29:11.106Z,185
2016-05-18T13:30:11.594Z,180
2016-05-18T13:31:11.439Z,180
2016-05-18T13:32:11.459Z,180
2016-05-18T13:33:11.602Z,185
2016-05-18T13:34:11.605Z,185
2016-05-18T13:35:14.108Z,180
2016-05-18T13:36:11.626Z,175
2016-05-18T13:37:11.472Z,170
2016-05-18T13:38:11.506Z,165
2016-05-18T13:39:11.618Z,160
2016-05-18T13:40:16.324Z,160
2016-05-18T13:41:11.483Z,155
2016-05-18T13:42:11.641Z,155
2016-05-18T13:43:11.488Z,150
2016-05-18T13:44:11.491Z,150
2016-05-18T13:45:11.338Z,145
2016-05-18T13:46:11.668Z,145
2016-05-18T13:47:11.515Z,145
2016-05-18T13:48:11.658Z,145
2016-05-18T13:49:11.660Z,145
2016-05-18T13:50:16.491Z,145
2016-05-18T13:51:11.526Z,140
2016-05-18T13:52:11.684Z,140
2016-05-18T13:53:11.484Z,140
2016-05-18T13:54:11.689Z,140
2016-05-18T13:55:11.365Z,145
2016-05-18T13:56:11.789Z,150
2016-05-18T13:57:11.385Z,150
2016-05-18T13:58:11.700Z,155
2016-05-18T13:59:11.734Z,155
2016-05-18T14:00:11.565Z,160